Etusivu
METAR-TAF:

METAR-TAF

Lentoasemat :

Sotilaslentoasema Cameri

Novara, Italia

Leveyspiiri: 45-31N, Pituuspiiri: 008-40E, korkeus merenpinnasta: 178 m

Tämänhetkinen sää

Tämä raportti tehtiin 1 tunti ja 2 minuuttia sitten, kello 10.55 UTC
Tuuli 5 kn lounaasta, vaihdellen etelän/kaakon ja lännen/lounaan välillä
Lämpötila 19°C
Kosteus 28%
Ilmanpaine 1023 hPa
Näkyvyys 10 km tai enemmän
ei pilviä alle 1500 m:ssä eikä cumulonimbus-pilviä

METAR: LIMN 221055Z 22005KT 160V250 CAVOK 19/M00 Q1023 RMK SKC VIS MIN 9999 BLU

Aika: 12:57 (11:57 UTC)

Sääennuste

Tämä raportti tehtiin 57 minuuttia sitten, kello 11.00 UTC
Ennuste voimassa 22. päivästä klo 12 UTC - 22. päivään klo 21 UTC
Tuuli 5 kn eri suunnista
Näkyvyys 10 km tai enemmän
ei pilviä alle 1500 m:ssä eikä cumulonimbus-pilviä

TAF: LIMN 221100Z 2212/2221 VRB05KT CAVOK

Säähavainnot ja -ennusteet yli 4000 lentoasemalta (METAR- ja TAF-raportit).

Käytössä olevat sääasemat on merkitty karttaan keltaisilla ja punaisilla pisteillä.

Aseta hiiri pisteen päälle nähdäksesi sääaseman nimen.

Klikkaa sitten nähdäksesi säähavainnot ja -ennusteet.

Kartan vaihtaminen: klikkaa mustalla rastilla varustettuja vihreitä pisteitä, niin voit zoomata sisään; viivalla varustettua vihreää pistettä, niin voit zoomata ulos tai vihreitä nuolia, niin pääset viereisille kartoille.


METAR-TAF: